Latest Coastal Weather Observations for Broome Port

IDW60701

Issued at 5:45 pm WST Wednesday 22 October 2014 (issued every 10 minutes, with the page automatically refreshed every 10 minutes)

About coastal observations | Map of coastal stations | Coastal observations for WA | Marine services | Other Formats
Station Details ID: 003102 Name: BROOME NTC AWS Lat: -18.00 Lon: 122.22 Height: 0.0 m
Data from the previous 72 hours. | See also: Recent months for locations in Western Australia
Date/Time
WST
Temp

°C
Wind Pressure Rain
since 9am
mm
Weather Cloud Vis
km
Sea
Height
m
Swell
Dir
 
Speed
knots
Gust
knots
hPa Trend Height
m
Period
s
Dir
21/09:30am 29.0 SW 2 4 1014.0 - - - - - - - - -
21/09:00am 27.6 WSW 9 11 1013.5 - - - - - - - - -
21/08:30am 27.4 SW 12 15 1013.5 - - - - - - - - -
21/08:00am 27.1 SW 13 17 1013.3 - - - - - - - - -
21/07:30am 26.7 SW 11 14 1013.2 - - - - - - - - -
21/07:00am 26.3 SW 10 12 1012.9 - - - - - - - - -
21/06:30am 26.0 SW 10 13 1012.6 - - - - - - - - -
21/06:00am 26.1 SW 12 14 1012.2 - - - - - - - - -
21/05:30am 26.0 SSW 9 10 1012.4 - - - - - - - - -
21/05:00am 26.1 S 8 9 1012.2 - - - - - - - - -
21/04:30am 27.7 SW 13 16 1011.9 - - - - - - - - -
21/04:00am 27.6 WSW 13 15 1011.6 - - - - - - - - -
21/03:30am 27.6 WSW 14 17 1011.4 - - - - - - - - -
21/03:00am 27.5 W 13 16 1011.3 - - - - - - - - -
21/02:30am 27.4 W 11 15 1011.4 - - - - - - - - -
21/02:00am 27.4 W 12 15 1011.7 - - - - - - - - -
21/01:30am 27.2 W 11 14 1011.8 - - - - - - - - -
21/01:00am 27.4 W 13 16 1011.6 - - - - - - - - -
21/12:30am 27.2 W 11 14 1011.7 - - - - - - - - -
21/12:00am 27.2 W 10 14 1012.0 - - - - - - - - -
 
Date/Time
WST
Temp

°C
Wind Pressure Rain
since 9am
mm
Weather Cloud Vis
km
Sea
Height
m
Swell
Dir
 
Speed
knots
Gust
knots
hPa Trend Height
m
Period
s
Dir
20/11:30pm 27.2 W 11 14 1012.4 - - - - - - - - -
20/11:00pm 27.2 W 10 12 1012.6 - - - - - - - - -
20/10:30pm 27.3 W 11 14 1012.8 - - - - - - - - -
20/10:00pm 27.3 W 11 14 1013.0 - - - - - - - - -
20/09:30pm 27.3 W 13 16 1012.9 - - - - - - - - -
20/09:00pm 27.2 W 13 15 1012.9 - - - - - - - - -
20/08:30pm 27.2 W 13 16 1012.9 - - - - - - - - -
20/08:00pm 27.2 WNW 13 16 1012.6 - - - - - - - - -
20/07:30pm 27.3 WNW 14 16 1012.3 - - - - - - - - -
20/07:00pm 27.3 WNW 14 18 1011.9 - - - - - - - - -
20/06:30pm 27.4 WNW 14 16 1011.6 - - - - - - - - -
20/06:00pm 27.3 WNW 14 17 1011.4 - - - - - - - - -
20/05:30pm 27.2 WNW 15 18 1010.9 - - - - - - - - -
20/05:00pm 27.4 WNW 16 18 1010.7 - - - - - - - - -
20/04:30pm 27.3 WNW 16 19 1010.6 - - - - - - - - -
20/04:00pm 27.2 WNW 17 19 1010.6 - - - - - - - - -
20/03:30pm 27.3 WNW 16 19 1010.7 - - - - - - - - -
20/03:00pm 27.3 WNW 16 18 1010.7 - - - - - - - - -
20/02:30pm 27.2 WNW 16 18 1010.9 - - - - - - - - -
20/02:00pm 27.4 WNW 15 18 1011.2 - - - - - - - - -
20/01:30pm 27.1 WNW 17 20 1011.5 - - - - - - - - -
20/01:00pm 27.0 NW 15 18 1012.0 - - - - - - - - -
20/12:30pm 26.9 WNW 14 17 1012.5 - - - - - - - - -
20/12:00pm 26.8 NW 13 17 1013.2 - - - - - - - - -
20/11:30am 26.9 NW 11 14 1013.6 - - - - - - - - -
20/11:00am 26.8 WNW 12 15 1013.8 - - - - - - - - -
20/10:30am 26.6 WNW 11 16 1014.0 - - - - - - - - -
20/10:00am 26.8 W 9 13 1014.4 - - - - - - - - -
20/09:30am 26.6 WSW 8 11 1014.8 - - - - - - - - -
20/09:00am 26.5 WSW 6 9 1015.2 - - - - - - - - -
20/08:30am 26.5 WSW 8 10 1014.8 - - - - - - - - -
20/08:00am 26.5 WSW 8 10 1014.7 - - - - - - - - -
20/07:30am 26.6 WSW 10 12 1014.3 - - - - - - - - -
20/07:00am 26.5 WSW 11 13 1013.7 - - - - - - - - -
20/06:30am 26.6 WSW 12 14 1013.3 - - - - - - - - -
20/06:00am 26.3 WSW 10 12 1013.0 - - - - - - - - -
20/05:30am 26.3 WSW 9 11 1012.5 - - - - - - - - -
20/05:00am 26.0 SW 10 12 1011.9 - - - - - - - - -
20/04:30am 25.6 SW 7 10 1011.7 - - - - - - - - -
20/04:00am 26.1 SW 6 9 1011.5 - - - - - - - - -
20/03:30am 26.3 SSW 7 10 1011.4 - - - - - - - - -
20/03:00am 26.5 SW 10 12 1011.1 - - - - - - - - -
20/02:30am 26.4 SW 11 13 1011.2 - - - - - - - - -
20/02:00am 26.4 SW 12 15 1011.2 - - - - - - - - -
20/01:30am 26.5 WSW 13 15 1011.3 - - - - - - - - -
20/01:00am 26.5 WSW 12 14 1011.4 - - - - - - - - -
20/12:30am 26.5 WSW 11 14 1011.7 - - - - - - - - -
20/12:00am 26.5 WSW 11 13 1012.0 - - - - - - - - -
 
Date/Time
WST
Temp

°C
Wind Pressure Rain
since 9am
mm
Weather Cloud Vis
km
Sea
Height
m
Swell
Dir
 
Speed
knots
Gust
knots
hPa Trend Height
m
Period
s
Dir
19/11:30pm 26.5 WSW 12 14 1012.3 - - - - - - - - -
19/11:00pm 26.5 WSW 12 14 1012.6 - - - - - - - - -
19/10:30pm 26.5 WSW 13 15 1012.8 - - - - - - - - -
19/10:00pm 26.5 WSW 13 16 1012.9 - - - - - - - - -
19/09:30pm 26.6 WSW 14 16 1012.9 - - - - - - - - -
19/09:00pm 26.9 W 14 17 1012.8 - - - - - - - - -
19/08:30pm 26.9 WSW 14 17 1012.5 - - - - - - - - -
19/08:00pm 26.7 W 14 16 1012.2 - - - - - - - - -
19/07:30pm 26.9 W 13 16 1011.8 - - - - - - - - -
19/07:00pm 26.7 W 13 17 1011.6 - - - - - - - - -
19/06:30pm 26.8 W 14 18 1011.3 - - - - - - - - -
19/06:00pm 26.6 W 16 19 1011.1 - - - - - - - - -

Other Formats:

Comma delimited format used in spreadsheet applications
http://www.bom.gov.au/fwo/IDW60701/IDW60701.95202.axf

JavaScript Object Notation format (JSON) in row-major order
http://www.bom.gov.au/fwo/IDW60701/IDW60701.95202.json